createdAt,value
2018-12-17T00:00:58.066Z,19.00
2018-12-17T00:06:01.650Z,17.00
2018-12-17T00:11:05.032Z,18.75
2018-12-17T00:16:08.336Z,17.25
2018-12-17T00:21:11.633Z,18.50
2018-12-17T00:26:14.932Z,17.50
2018-12-17T00:31:18.249Z,17.25
2018-12-17T00:36:21.545Z,15.60
2018-12-17T00:41:24.854Z,16.00
2018-12-17T00:46:28.168Z,16.00
2018-12-17T00:51:31.545Z,16.00
2018-12-17T00:56:34.861Z,16.75
2018-12-17T01:01:38.162Z,18.00
2018-12-17T01:06:41.477Z,15.20
2018-12-17T01:11:44.785Z,14.80
2018-12-17T01:16:48.081Z,15.00
2018-12-17T01:21:51.463Z,15.00
2018-12-17T01:26:54.755Z,16.75
2018-12-17T01:31:58.050Z,15.00
2018-12-17T01:37:01.342Z,15.50
2018-12-17T01:42:04.642Z,16.00
2018-12-17T01:47:07.970Z,14.75
2018-12-17T01:52:11.273Z,13.75
2018-12-17T01:57:14.654Z,16.00
2018-12-17T02:02:17.954Z,13.20
2018-12-17T02:07:21.245Z,14.00
2018-12-17T02:12:24.562Z,13.00
2018-12-17T02:17:27.866Z,14.75
2018-12-17T02:22:31.258Z,10.50
2018-12-17T02:27:34.573Z,13.25
2018-12-17T02:32:37.922Z,14.60
2018-12-17T02:37:41.243Z,13.75
2018-12-17T02:42:44.545Z,13.50
2018-12-17T02:47:47.837Z,13.75
2018-12-17T02:52:51.134Z,10.75
2018-12-17T02:57:54.455Z,14.60
2018-12-17T03:02:57.762Z,14.00
2018-12-17T03:08:01.145Z,12.25
2018-12-17T03:13:04.458Z,12.00
2018-12-17T03:18:07.766Z,11.00
2018-12-17T03:23:11.072Z,14.40
2018-12-17T03:28:14.369Z,12.00
2018-12-17T03:33:17.667Z,11.00
2018-12-17T03:38:20.970Z,11.40
2018-12-17T03:43:24.304Z,11.00
2018-12-17T03:48:27.596Z,10.80
2018-12-17T03:53:30.893Z,11.60
2018-12-17T03:58:34.193Z,10.50
2018-12-17T04:03:37.649Z,12.50
2018-12-17T04:08:40.958Z,10.20
2018-12-17T04:13:44.254Z,9.75
2018-12-17T04:18:47.560Z,11.00
2018-12-17T04:23:50.983Z,11.20
2018-12-17T04:28:54.285Z,10.00
2018-12-17T04:33:57.605Z,9.00
2018-12-17T04:39:00.921Z,10.60
2018-12-17T04:44:04.221Z,10.00
2018-12-17T04:49:07.534Z,12.25
2018-12-17T04:54:10.881Z,11.00
2018-12-17T04:59:14.824Z,10.75
2018-12-17T05:04:18.608Z,10.00
2018-12-17T05:09:21.960Z,9.60
2018-12-17T05:14:25.253Z,9.00
2018-12-17T05:19:28.558Z,10.50
2018-12-17T05:24:31.917Z,8.20
2018-12-17T05:29:35.233Z,10.00
2018-12-17T05:34:38.549Z,10.00
2018-12-17T05:39:41.919Z,10.00
2018-12-17T05:44:45.218Z,9.00
2018-12-17T05:49:48.521Z,12.25
2018-12-17T05:54:51.878Z,9.00
2018-12-17T05:59:55.182Z,9.00
2018-12-17T06:04:58.473Z,8.75
2018-12-17T06:10:01.795Z,10.60
2018-12-17T06:15:05.805Z,8.80
2018-12-17T06:20:09.097Z,9.00
2018-12-17T06:25:12.390Z,9.20
2018-12-17T06:30:15.685Z,9.00
2018-12-17T06:35:18.979Z,9.75
2018-12-17T06:40:22.293Z,9.40
2018-12-17T06:45:25.593Z,9.00
2018-12-17T06:50:28.881Z,7.50
2018-12-17T06:55:32.177Z,8.25
2018-12-17T07:00:35.465Z,9.00
2018-12-17T07:05:38.749Z,8.25
2018-12-17T07:10:42.053Z,10.00
2018-12-17T07:15:45.374Z,8.20
2018-12-17T07:20:48.666Z,9.25
2018-12-17T07:25:51.949Z,8.00
2018-12-17T07:30:55.245Z,8.00
2018-12-17T07:35:58.538Z,8.00
2018-12-17T07:41:02.209Z,7.80
2018-12-17T07:46:05.499Z,8.60
2018-12-17T07:51:08.791Z,8.60
2018-12-17T07:56:12.077Z,9.00
2018-12-17T08:01:15.373Z,8.25
2018-12-17T08:06:18.670Z,7.00
2018-12-17T08:11:21.960Z,8.00
2018-12-17T08:16:25.269Z,10.00
2018-12-17T08:21:28.581Z,22.60
2018-12-17T08:26:31.898Z,22.60
2018-12-17T08:31:35.224Z,23.50
2018-12-17T08:36:38.549Z,24.60
2018-12-17T08:41:41.869Z,25.00
2018-12-17T08:46:45.175Z,24.25
2018-12-17T08:51:48.813Z,21.25
2018-12-17T08:56:52.113Z,19.00
2018-12-17T09:01:55.419Z,15.50
2018-12-17T09:06:58.714Z,13.00
2018-12-17T09:12:02.034Z,11.80
2018-12-17T09:17:05.336Z,10.60
2018-12-17T09:22:08.642Z,10.00
2018-12-17T09:27:12.022Z,7.75
2018-12-17T09:32:15.316Z,8.50
2018-12-17T09:37:18.647Z,8.00
2018-12-17T09:42:21.947Z,9.00
2018-12-17T09:47:25.229Z,7.00
2018-12-17T09:52:28.524Z,9.00
2018-12-17T09:57:31.841Z,7.00
2018-12-17T10:02:35.128Z,7.75
2018-12-17T10:07:38.417Z,7.50
2018-12-17T10:12:41.753Z,7.40
2018-12-17T10:17:45.040Z,6.75
2018-12-17T10:22:48.357Z,7.00
2018-12-17T10:27:51.655Z,8.00
2018-12-17T10:32:54.977Z,6.60
2018-12-17T10:37:58.418Z,7.20
2018-12-17T10:43:01.721Z,8.00
2018-12-17T10:48:05.039Z,9.75
2018-12-17T10:53:08.352Z,9.25
2018-12-17T10:58:11.662Z,10.40
2018-12-17T11:08:33.455Z,12.00
2018-12-17T11:13:36.897Z,18.00
2018-12-17T11:18:40.220Z,16.25
2018-12-17T11:23:43.546Z,14.75
2018-12-17T11:28:46.866Z,14.00
2018-12-17T11:33:50.246Z,15.00
2018-12-17T11:38:53.553Z,13.25
2018-12-17T11:43:56.861Z,13.60
2018-12-17T11:49:00.185Z,13.00
2018-12-17T11:54:03.498Z,13.00
2018-12-17T11:59:06.844Z,11.20
2018-12-17T12:04:10.249Z,11.80
2018-12-17T12:09:18.549Z,12.00
2018-12-17T12:14:22.049Z,12.40
2018-12-17T12:19:25.352Z,12.25
2018-12-17T12:24:28.645Z,12.20
2018-12-17T12:29:31.946Z,9.25
2018-12-17T12:34:35.255Z,10.25
2018-12-17T12:39:38.584Z,10.40
2018-12-17T12:44:41.893Z,10.00
2018-12-17T12:49:45.193Z,9.00
2018-12-17T12:54:48.510Z,9.75
2018-12-17T12:59:51.841Z,9.80
2018-12-17T13:04:55.162Z,10.00
2018-12-17T13:09:58.471Z,7.75
2018-12-17T13:15:01.803Z,10.00
2018-12-17T13:20:07.582Z,7.80
2018-12-17T13:25:24.383Z,8.75
2018-12-17T13:30:27.780Z,8.25
2018-12-17T13:35:31.098Z,10.50
2018-12-17T13:40:34.426Z,7.00
2018-12-17T13:45:37.754Z,5.00
2018-12-17T13:50:41.061Z,4.50
2018-12-17T13:55:44.436Z,4.50
2018-12-17T14:00:47.821Z,3.00
2018-12-17T14:05:51.138Z,5.00
2018-12-17T14:10:54.914Z,5.50
2018-12-17T14:16:03.548Z,6.00
2018-12-17T14:21:13.790Z,6.75
2018-12-17T14:26:17.260Z,8.00
2018-12-17T14:31:20.589Z,8.00
2018-12-17T14:36:23.913Z,7.00
2018-12-17T14:41:27.238Z,7.00
2018-12-17T14:46:34.722Z,9.00
2018-12-17T14:51:38.017Z,8.00
2018-12-17T14:56:41.322Z,6.50
2018-12-17T15:01:44.687Z,18.20
2018-12-17T15:06:48.021Z,32.25
2018-12-17T15:11:51.348Z,30.75
2018-12-17T15:16:54.661Z,35.00
2018-12-17T15:21:57.985Z,31.00
2018-12-17T15:27:01.284Z,26.50
2018-12-17T15:32:04.677Z,26.75
2018-12-17T15:37:07.989Z,26.00
2018-12-17T15:42:11.301Z,25.75
2018-12-17T15:47:14.629Z,27.00
2018-12-17T15:52:17.968Z,26.00
2018-12-17T15:57:21.295Z,25.75
2018-12-17T16:02:24.604Z,24.00
2018-12-17T16:07:27.935Z,23.60
2018-12-17T16:12:31.260Z,24.00
2018-12-17T16:17:34.606Z,23.00
2018-12-17T16:22:37.917Z,24.20
2018-12-17T16:27:41.235Z,23.25
2018-12-17T16:32:44.560Z,22.25
2018-12-17T16:37:47.870Z,20.40
2018-12-17T16:42:51.194Z,20.00
2018-12-17T16:47:55.105Z,22.75
2018-12-17T16:52:58.424Z,19.50
2018-12-17T16:58:01.756Z,20.60
2018-12-17T17:03:05.060Z,20.40
2018-12-17T17:08:08.376Z,18.75
2018-12-17T17:13:11.727Z,23.20
2018-12-17T17:18:15.053Z,22.00
2018-12-17T17:23:18.509Z,20.25
2018-12-17T17:28:21.866Z,20.00
2018-12-17T17:33:25.189Z,29.75
2018-12-17T17:38:28.517Z,36.50
2018-12-17T17:43:31.854Z,38.25
2018-12-17T17:48:35.181Z,39.00
2018-12-17T17:53:38.503Z,34.75
2018-12-17T17:58:41.886Z,36.80
2018-12-17T18:03:45.209Z,37.50
2018-12-17T18:08:48.526Z,36.00
2018-12-17T18:13:51.865Z,36.25
2018-12-17T18:18:55.195Z,37.00
2018-12-17T18:23:58.507Z,38.25
2018-12-17T18:29:02.742Z,34.20
2018-12-17T18:34:06.338Z,36.00
2018-12-17T18:39:09.852Z,31.80
2018-12-17T18:44:13.215Z,33.00
2018-12-17T18:49:16.660Z,33.25
2018-12-17T18:54:20.021Z,33.00
2018-12-17T18:59:23.356Z,30.00
2018-12-17T19:04:26.669Z,29.00
2018-12-17T19:09:30.014Z,30.60
2018-12-17T19:14:33.357Z,30.25
2018-12-17T19:19:36.690Z,29.80
2018-12-17T19:24:40.025Z,32.20
2018-12-17T19:29:43.342Z,31.50
2018-12-17T19:34:46.732Z,30.00
2018-12-17T19:39:50.101Z,32.00
2018-12-17T19:44:53.443Z,30.00
2018-12-17T19:49:56.811Z,27.50
2018-12-17T19:55:00.182Z,24.60
2018-12-17T20:00:03.876Z,27.00
2018-12-17T20:05:07.249Z,27.40
2018-12-17T20:10:14.714Z,27.20
2018-12-17T20:15:18.109Z,26.00
2018-12-17T20:20:21.438Z,25.40
2018-12-17T20:25:24.805Z,26.25
2018-12-17T20:30:28.629Z,26.00
2018-12-17T20:35:31.970Z,24.25
2018-12-17T20:40:35.302Z,26.00
2018-12-17T20:45:38.629Z,25.40
2018-12-17T20:50:41.964Z,22.40
2018-12-17T20:55:45.301Z,22.75
2018-12-17T21:00:48.642Z,23.50
2018-12-17T21:05:51.981Z,24.50
2018-12-17T21:10:55.330Z,22.00
2018-12-17T21:15:58.661Z,22.75
2018-12-17T21:21:02.002Z,23.20
2018-12-17T21:26:05.351Z,24.25
2018-12-17T21:31:08.680Z,25.40
2018-12-17T21:36:12.014Z,24.00
2018-12-17T21:41:15.429Z,20.00
2018-12-17T21:46:18.777Z,19.00
2018-12-17T21:51:22.105Z,20.80
2018-12-17T21:56:25.440Z,20.40
2018-12-17T22:01:28.761Z,21.50
2018-12-17T22:06:32.112Z,25.00
2018-12-17T22:11:35.705Z,20.00
2018-12-17T22:16:39.050Z,19.00
2018-12-17T22:21:42.373Z,19.25
2018-12-17T22:26:45.734Z,20.40
2018-12-17T22:31:49.110Z,18.25
2018-12-17T22:36:52.435Z,19.75
2018-12-17T22:41:55.837Z,17.40
2018-12-17T22:46:59.197Z,16.50
2018-12-17T22:52:02.530Z,18.00
2018-12-17T22:57:05.845Z,19.00
2018-12-17T23:02:09.157Z,19.75
2018-12-17T23:07:12.491Z,16.00
2018-12-17T23:12:27.237Z,18.80
2018-12-17T23:17:39.993Z,17.00
2018-12-17T23:22:43.857Z,18.00
2018-12-17T23:27:50.252Z,15.00
2018-12-17T23:32:53.594Z,15.00
2018-12-17T23:37:56.905Z,16.50
2018-12-17T23:43:00.222Z,16.50
